createdAt,value
2023-05-18T00:00:20.715Z,95314.00
2023-05-18T00:01:20.874Z,95316.00
2023-05-18T00:02:20.823Z,95318.00
2023-05-18T00:03:20.945Z,95316.00
2023-05-18T00:04:20.960Z,95316.00
2023-05-18T00:05:20.987Z,95316.00
2023-05-18T00:06:21.009Z,95316.00
2023-05-18T00:07:21.099Z,95314.00
2023-05-18T00:08:21.147Z,95314.00
2023-05-18T00:09:21.205Z,95314.00
2023-05-18T00:10:21.334Z,95314.00
2023-05-18T00:11:21.342Z,95314.00
2023-05-18T00:12:21.508Z,95314.00
2023-05-18T00:13:21.515Z,95314.00
2023-05-18T00:14:21.511Z,95314.00
2023-05-18T00:15:21.614Z,95314.00
2023-05-18T00:16:21.733Z,95314.00
2023-05-18T00:17:21.691Z,95314.00
2023-05-18T00:18:21.771Z,95314.00
2023-05-18T00:19:21.942Z,95308.00
2023-05-18T00:20:21.856Z,95312.00
2023-05-18T00:21:21.942Z,95308.00
2023-05-18T00:22:21.982Z,95310.00
2023-05-18T00:23:22.048Z,95310.00
2023-05-18T00:24:22.115Z,95310.00
2023-05-18T00:25:22.205Z,95312.00
2023-05-18T00:26:22.245Z,95312.00
2023-05-18T00:27:22.321Z,95314.00
2023-05-18T00:28:22.331Z,95312.00
2023-05-18T00:29:22.382Z,95314.00
2023-05-18T00:30:22.448Z,95312.00
2023-05-18T00:31:22.569Z,95312.00
2023-05-18T00:32:22.599Z,95314.00
2023-05-18T00:33:22.684Z,95312.00
2023-05-18T00:34:22.728Z,95312.00
2023-05-18T00:35:22.784Z,95312.00
2023-05-18T00:36:22.800Z,95314.00
2023-05-18T00:37:22.837Z,95312.00
2023-05-18T00:38:22.925Z,95308.00
2023-05-18T00:39:22.987Z,95310.00
2023-05-18T00:40:23.025Z,95308.00
2023-05-18T00:41:23.130Z,95308.00
2023-05-18T00:42:23.194Z,95308.00
2023-05-18T00:43:23.249Z,95306.00
2023-05-18T00:44:23.305Z,95306.00
2023-05-18T00:45:23.343Z,95306.00
2023-05-18T00:46:23.397Z,95304.00
2023-05-18T00:47:23.501Z,95304.00
2023-05-18T00:48:23.529Z,95302.00
2023-05-18T00:49:23.570Z,95304.00
2023-05-18T00:50:23.663Z,95302.00
2023-05-18T00:51:23.730Z,95304.00
2023-05-18T00:52:23.755Z,95302.00
2023-05-18T00:53:23.889Z,95300.00
2023-05-18T00:54:23.906Z,95302.00
2023-05-18T00:55:24.005Z,95300.00
2023-05-18T00:56:24.002Z,95300.00
2023-05-18T00:57:24.033Z,95300.00
2023-05-18T00:58:24.124Z,95298.00
2023-05-18T00:59:24.224Z,95300.00
2023-05-18T01:00:24.495Z,95300.00
2023-05-18T01:01:24.350Z,95298.00
2023-05-18T01:02:24.450Z,95298.00
2023-05-18T01:03:24.497Z,95296.00
2023-05-18T01:04:24.499Z,95296.00
2023-05-18T01:05:24.548Z,95298.00
2023-05-18T01:06:24.580Z,95296.00
2023-05-18T01:07:24.668Z,95296.00
2023-05-18T01:08:24.720Z,95296.00
2023-05-18T01:09:24.785Z,95294.00
2023-05-18T01:10:24.868Z,95294.00
2023-05-18T01:11:24.897Z,95292.00
2023-05-18T01:12:24.986Z,95292.00
2023-05-18T01:13:25.003Z,95292.00
2023-05-18T01:14:25.049Z,95292.00
2023-05-18T01:15:25.126Z,95290.00
2023-05-18T01:16:25.222Z,95290.00
2023-05-18T01:17:25.241Z,95290.00
2023-05-18T01:18:25.348Z,95292.00
2023-05-18T01:19:25.400Z,95290.00
2023-05-18T01:20:25.419Z,95292.00
2023-05-18T01:21:25.507Z,95292.00
2023-05-18T01:22:25.557Z,95288.00
2023-05-18T01:23:25.638Z,95292.00
2023-05-18T01:24:25.731Z,95290.00
2023-05-18T01:25:25.736Z,95292.00
2023-05-18T01:26:25.766Z,95290.00
2023-05-18T01:27:25.827Z,95288.00
2023-05-18T01:28:25.915Z,95290.00
2023-05-18T01:29:25.966Z,95292.00
2023-05-18T01:30:26.019Z,95290.00
2023-05-18T01:31:26.101Z,95288.00
2023-05-18T01:32:26.172Z,95288.00
2023-05-18T01:33:26.219Z,95284.00
2023-05-18T01:34:26.263Z,95282.00
2023-05-18T01:35:26.327Z,95284.00
2023-05-18T01:36:26.430Z,95282.00
2023-05-18T01:37:26.418Z,95281.00
2023-05-18T01:38:26.490Z,95279.00
2023-05-18T01:39:26.555Z,95281.00
2023-05-18T01:40:26.610Z,95279.00
2023-05-18T01:41:26.636Z,95277.00
2023-05-18T01:42:26.663Z,95277.00
2023-05-18T01:43:26.741Z,95275.00
2023-05-18T01:44:26.800Z,95277.00
2023-05-18T01:45:26.916Z,95277.00
2023-05-18T01:46:26.929Z,95275.00
2023-05-18T01:47:26.976Z,95275.00
2023-05-18T01:48:26.987Z,95273.00
2023-05-18T01:49:27.114Z,95275.00
2023-05-18T01:50:27.142Z,95273.00
2023-05-18T01:51:27.171Z,95275.00
2023-05-18T01:52:27.207Z,95275.00
2023-05-18T01:53:27.314Z,95275.00
2023-05-18T01:54:27.357Z,95275.00
2023-05-18T01:55:27.455Z,95275.00
2023-05-18T01:56:27.475Z,95273.00
2023-05-18T01:57:27.540Z,95273.00
2023-05-18T01:58:27.594Z,95273.00
2023-05-18T01:59:27.709Z,95273.00
2023-05-18T02:00:27.766Z,95273.00
2023-05-18T02:01:27.918Z,95271.00
2023-05-18T02:02:27.981Z,95269.00
2023-05-18T02:03:27.939Z,95271.00
2023-05-18T02:04:27.950Z,95271.00
2023-05-18T02:05:28.191Z,95269.00
2023-05-18T02:06:28.080Z,95269.00
2023-05-18T02:07:28.333Z,95271.00
2023-05-18T02:08:28.537Z,95271.00
2023-05-18T02:09:28.411Z,95267.00
2023-05-18T02:10:28.307Z,95267.00
2023-05-18T02:11:28.288Z,95271.00
2023-05-18T02:12:28.373Z,95267.00
2023-05-18T02:13:28.418Z,95269.00
2023-05-18T02:14:28.471Z,95265.00
2023-05-18T02:15:28.647Z,95269.00
2023-05-18T02:16:28.638Z,95269.00
2023-05-18T02:17:28.689Z,95267.00
2023-05-18T02:18:28.703Z,95267.00
2023-05-18T02:19:28.769Z,95265.00
2023-05-18T02:20:30.350Z,95265.00
2023-05-18T02:21:28.881Z,95265.00
2023-05-18T02:22:28.874Z,95265.00
2023-05-18T02:23:29.008Z,95265.00
2023-05-18T02:24:29.011Z,95263.00
2023-05-18T02:25:29.188Z,95265.00
2023-05-18T02:26:29.111Z,95265.00
2023-05-18T02:27:29.142Z,95265.00
2023-05-18T02:28:29.223Z,95263.00
2023-05-18T02:29:29.280Z,95261.00
2023-05-18T02:30:29.288Z,95261.00
2023-05-18T02:31:29.384Z,95261.00
2023-05-18T02:32:29.556Z,95261.00
2023-05-18T02:33:29.521Z,95261.00
2023-05-18T02:34:29.528Z,95263.00
2023-05-18T02:35:29.802Z,95261.00
2023-05-18T02:36:29.701Z,95261.00
2023-05-18T02:37:29.760Z,95261.00
2023-05-18T02:38:29.757Z,95261.00
2023-05-18T02:39:29.859Z,95261.00
2023-05-18T02:40:29.931Z,95259.00
2023-05-18T02:41:29.977Z,95263.00
2023-05-18T02:42:30.055Z,95263.00
2023-05-18T02:43:30.099Z,95261.00
2023-05-18T02:44:30.170Z,95257.00
2023-05-18T02:45:30.449Z,95259.00
2023-05-18T02:46:30.305Z,95257.00
2023-05-18T02:47:30.364Z,95257.00
2023-05-18T02:48:30.339Z,95253.00
2023-05-18T02:49:30.399Z,95253.00
2023-05-18T02:50:30.450Z,95253.00
2023-05-18T02:51:30.481Z,95255.00
2023-05-18T02:52:30.576Z,95253.00
2023-05-18T02:53:30.782Z,95251.00
2023-05-18T02:54:30.680Z,95251.00
2023-05-18T02:55:31.049Z,95251.00
2023-05-18T02:56:30.807Z,95249.00
2023-05-18T02:57:30.819Z,95249.00
2023-05-18T02:58:30.929Z,95249.00
2023-05-18T02:59:30.988Z,95245.00
2023-05-18T03:00:31.004Z,95247.00
2023-05-18T03:01:31.068Z,95249.00
2023-05-18T03:02:31.104Z,95245.00
2023-05-18T03:03:31.123Z,95247.00
2023-05-18T03:04:31.168Z,95245.00
2023-05-18T03:05:31.418Z,95249.00
2023-05-18T03:06:31.253Z,95247.00
2023-05-18T03:07:31.389Z,95249.00
2023-05-18T03:08:31.480Z,95249.00
2023-05-18T03:09:31.404Z,95249.00
2023-05-18T03:10:31.451Z,95249.00
2023-05-18T03:11:31.528Z,95247.00
2023-05-18T03:12:31.582Z,95245.00
2023-05-18T03:13:31.615Z,95247.00
2023-05-18T03:14:31.662Z,95249.00
2023-05-18T03:15:31.880Z,95243.00
2023-05-18T03:16:31.725Z,95245.00
2023-05-18T03:17:31.837Z,95247.00
2023-05-18T03:18:31.792Z,95245.00
2023-05-18T03:19:31.832Z,95247.00
2023-05-18T03:20:31.896Z,95249.00
2023-05-18T03:21:31.967Z,95247.00
2023-05-18T03:22:32.006Z,95241.00
2023-05-18T03:23:32.006Z,95245.00
2023-05-18T03:24:32.087Z,95247.00
2023-05-18T03:25:32.220Z,95247.00
2023-05-18T03:26:32.142Z,95249.00
2023-05-18T03:27:32.168Z,95247.00
2023-05-18T03:28:32.252Z,95249.00
2023-05-18T03:29:32.259Z,95249.00
2023-05-18T03:30:32.339Z,95245.00
2023-05-18T03:31:32.372Z,95245.00
2023-05-18T03:32:32.422Z,95249.00
2023-05-18T03:33:32.518Z,95247.00
2023-05-18T03:34:33.270Z,95245.00
2023-05-18T03:35:32.579Z,95245.00
2023-05-18T03:36:32.507Z,95247.00
2023-05-18T03:37:32.588Z,95249.00
2023-05-18T03:38:32.548Z,95249.00
2023-05-18T03:39:32.799Z,95251.00
2023-05-18T03:40:32.729Z,95253.00
2023-05-18T03:41:32.717Z,95253.00
2023-05-18T03:42:32.717Z,95253.00
2023-05-18T03:43:32.812Z,95253.00
2023-05-18T03:44:32.838Z,95253.00
2023-05-18T03:45:32.853Z,95253.00
2023-05-18T03:46:32.910Z,95253.00
2023-05-18T03:47:32.981Z,95253.00
2023-05-18T03:48:32.929Z,95253.00
2023-05-18T03:49:33.011Z,95251.00
2023-05-18T03:50:33.052Z,95253.00
2023-05-18T03:51:33.076Z,95253.00
2023-05-18T03:52:33.100Z,95253.00
2023-05-18T03:53:33.140Z,95251.00
2023-05-18T03:54:33.198Z,95253.00
2023-05-18T03:55:33.266Z,95251.00
2023-05-18T03:56:33.266Z,95249.00
2023-05-18T03:57:33.276Z,95251.00
2023-05-18T03:58:33.352Z,95249.00
2023-05-18T03:59:33.377Z,95251.00
2023-05-18T04:00:33.391Z,95251.00
2023-05-18T04:01:33.521Z,95249.00
2023-05-18T04:02:33.595Z,95251.00
2023-05-18T04:03:33.518Z,95251.00
2023-05-18T04:04:33.523Z,95251.00
2023-05-18T04:05:33.583Z,95253.00
2023-05-18T04:06:33.556Z,95253.00
2023-05-18T04:07:33.584Z,95253.00
2023-05-18T04:08:33.618Z,95253.00
2023-05-18T04:09:33.612Z,95253.00
2023-05-18T04:10:33.616Z,95253.00
2023-05-18T04:11:33.672Z,95253.00
2023-05-18T04:12:33.779Z,95255.00
2023-05-18T04:13:33.654Z,95253.00
2023-05-18T04:14:33.689Z,95253.00
2023-05-18T04:15:33.693Z,95255.00
2023-05-18T04:16:33.734Z,95255.00
2023-05-18T04:17:33.723Z,95253.00
2023-05-18T04:18:33.780Z,95257.00
2023-05-18T04:19:33.829Z,95255.00
2023-05-18T04:20:33.774Z,95255.00
2023-05-18T04:21:33.859Z,95253.00
2023-05-18T04:22:33.925Z,95253.00
2023-05-18T04:23:33.883Z,95255.00
2023-05-18T04:24:33.931Z,95255.00
2023-05-18T04:25:33.976Z,95255.00
2023-05-18T04:26:34.003Z,95253.00
2023-05-18T04:27:34.030Z,95253.00
2023-05-18T04:28:34.054Z,95255.00
2023-05-18T04:29:34.059Z,95251.00
2023-05-18T04:30:34.060Z,95253.00
2023-05-18T04:31:34.100Z,95253.00
2023-05-18T04:32:34.151Z,95253.00
2023-05-18T04:33:34.090Z,95253.00
2023-05-18T04:34:34.143Z,95255.00
2023-05-18T04:35:34.144Z,95255.00
2023-05-18T04:36:34.147Z,95255.00
2023-05-18T04:37:34.170Z,95257.00
2023-05-18T04:38:34.221Z,95255.00
2023-05-18T04:39:34.227Z,95255.00
2023-05-18T04:40:34.468Z,95255.00
2023-05-18T04:41:34.290Z,95255.00
2023-05-18T04:42:34.285Z,95255.00
2023-05-18T04:43:34.326Z,95259.00
2023-05-18T04:44:34.376Z,95255.00
2023-05-18T04:45:34.606Z,95257.00
2023-05-18T04:46:34.414Z,95257.00
2023-05-18T04:47:34.419Z,95255.00
2023-05-18T04:48:34.424Z,95255.00
2023-05-18T04:49:34.439Z,95259.00
2023-05-18T04:50:34.448Z,95257.00
2023-05-18T04:51:34.517Z,95257.00
2023-05-18T04:52:34.523Z,95255.00
2023-05-18T04:53:34.487Z,95255.00
2023-05-18T04:54:34.496Z,95257.00
2023-05-18T04:55:34.742Z,95257.00
2023-05-18T04:56:34.614Z,95255.00
2023-05-18T04:57:34.596Z,95255.00
2023-05-18T04:58:34.623Z,95253.00
2023-05-18T04:59:34.612Z,95253.00
2023-05-18T05:00:34.626Z,95251.00
2023-05-18T05:01:34.666Z,95249.00
2023-05-18T05:02:34.737Z,95253.00
2023-05-18T05:03:34.843Z,95251.00
2023-05-18T05:04:34.706Z,95255.00
2023-05-18T05:05:34.729Z,95255.00
2023-05-18T05:06:34.783Z,95249.00
2023-05-18T05:07:34.839Z,95257.00
2023-05-18T05:08:34.872Z,95255.00
2023-05-18T05:09:34.944Z,95255.00
2023-05-18T05:10:34.965Z,95255.00
2023-05-18T05:11:35.006Z,95253.00
2023-05-18T05:12:35.062Z,95253.00
2023-05-18T05:13:35.045Z,95253.00
2023-05-18T05:14:35.084Z,95251.00
2023-05-18T05:15:35.110Z,95253.00
2023-05-18T05:16:35.232Z,95251.00
2023-05-18T05:17:35.311Z,95251.00
2023-05-18T05:18:35.358Z,95251.00
2023-05-18T05:19:35.323Z,95251.00
2023-05-18T05:20:35.350Z,95251.00
2023-05-18T05:21:35.443Z,95249.00
2023-05-18T05:22:35.447Z,95253.00
2023-05-18T05:23:35.497Z,95253.00
2023-05-18T05:24:35.550Z,95251.00
2023-05-18T05:25:35.599Z,95253.00
2023-05-18T05:26:35.632Z,95253.00
2023-05-18T05:27:35.711Z,95251.00
2023-05-18T05:28:35.792Z,95249.00
2023-05-18T05:29:35.800Z,95249.00
2023-05-18T05:30:35.838Z,95249.00
2023-05-18T05:31:35.884Z,95247.00
2023-05-18T05:32:35.927Z,95247.00
2023-05-18T05:33:35.925Z,95245.00
2023-05-18T05:34:35.965Z,95245.00
2023-05-18T05:35:36.188Z,95243.00
2023-05-18T05:36:36.040Z,95245.00
2023-05-18T05:37:36.091Z,95247.00
2023-05-18T05:38:36.121Z,95247.00
2023-05-18T05:39:36.175Z,95245.00
2023-05-18T05:40:36.212Z,95247.00
2023-05-18T05:41:36.222Z,95247.00
2023-05-18T05:42:36.345Z,95247.00
2023-05-18T05:43:36.349Z,95245.00
2023-05-18T05:44:36.367Z,95245.00
2023-05-18T05:45:36.455Z,95245.00
2023-05-18T05:46:36.588Z,95245.00
2023-05-18T05:47:36.580Z,95245.00
2023-05-18T05:48:36.655Z,95245.00
2023-05-18T05:49:36.691Z,95243.00
2023-05-18T05:50:36.724Z,95241.00
2023-05-18T05:51:36.798Z,95241.00
2023-05-18T05:52:36.882Z,95243.00
2023-05-18T05:53:36.906Z,95241.00
2023-05-18T05:54:36.958Z,95239.00
2023-05-18T05:55:37.053Z,95241.00
2023-05-18T05:56:37.080Z,95241.00
2023-05-18T05:57:37.141Z,95243.00
2023-05-18T05:58:37.224Z,95241.00
2023-05-18T05:59:37.257Z,95243.00
2023-05-18T06:00:37.326Z,95241.00
2023-05-18T06:01:37.406Z,95241.00
2023-05-18T06:02:37.596Z,95239.00
2023-05-18T06:03:37.562Z,95243.00
2023-05-18T06:04:37.619Z,95241.00
2023-05-18T06:05:37.627Z,95239.00
2023-05-18T06:06:37.688Z,95243.00
2023-05-18T06:07:37.752Z,95245.00
2023-05-18T06:08:37.806Z,95245.00
2023-05-18T06:09:37.848Z,95243.00
2023-05-18T06:10:37.922Z,95245.00
2023-05-18T06:11:37.979Z,95243.00
2023-05-18T06:12:38.033Z,95245.00
2023-05-18T06:13:38.098Z,95245.00
2023-05-18T06:14:38.149Z,95247.00
2023-05-18T06:15:38.273Z,95247.00
2023-05-18T06:16:38.307Z,95249.00
2023-05-18T06:17:38.313Z,95247.00
2023-05-18T06:18:38.417Z,95247.00
2023-05-18T06:19:38.417Z,95247.00
2023-05-18T06:20:38.503Z,95251.00
2023-05-18T06:21:38.526Z,95249.00
2023-05-18T06:22:38.619Z,95253.00
2023-05-18T06:23:41.669Z,95249.00
2023-05-18T06:24:38.666Z,95255.00
2023-05-18T06:25:38.632Z,95255.00
2023-05-18T06:26:38.630Z,95257.00
2023-05-18T06:27:38.641Z,95257.00
2023-05-18T06:28:38.669Z,95257.00
2023-05-18T06:29:38.622Z,95251.00
2023-05-18T06:30:38.602Z,95253.00
2023-05-18T06:31:38.613Z,95249.00
2023-05-18T06:32:38.609Z,95251.00
2023-05-18T06:33:38.630Z,95251.00
2023-05-18T06:34:38.606Z,95251.00
2023-05-18T06:35:38.568Z,95249.00
2023-05-18T06:36:38.532Z,95249.00
2023-05-18T06:37:38.565Z,95247.00
2023-05-18T06:38:38.532Z,95249.00
2023-05-18T06:39:38.634Z,95247.00
2023-05-18T06:40:38.580Z,95251.00
2023-05-18T06:41:38.545Z,95249.00
2023-05-18T06:42:38.548Z,95247.00
2023-05-18T06:43:38.497Z,95247.00
2023-05-18T06:44:38.522Z,95249.00
2023-05-18T06:45:38.600Z,95249.00
2023-05-18T06:46:38.579Z,95251.00
2023-05-18T06:47:38.576Z,95251.00
2023-05-18T06:48:38.489Z,95253.00
2023-05-18T06:49:38.504Z,95251.00
2023-05-18T06:50:38.471Z,95249.00
2023-05-18T06:51:38.468Z,95255.00
2023-05-18T06:52:38.452Z,95255.00
2023-05-18T06:53:38.423Z,95253.00
2023-05-18T06:54:38.439Z,95251.00
2023-05-18T06:55:38.387Z,95253.00
2023-05-18T06:56:38.397Z,95253.00
2023-05-18T06:57:38.376Z,95251.00
2023-05-18T06:58:38.384Z,95253.00
2023-05-18T06:59:38.414Z,95255.00
2023-05-18T07:00:38.396Z,95251.00
2023-05-18T07:01:38.512Z,95251.00
2023-05-18T07:02:38.490Z,95251.00
2023-05-18T07:03:38.443Z,95253.00
2023-05-18T07:04:38.503Z,95255.00
2023-05-18T07:05:39.566Z,95253.00
2023-05-18T07:06:38.553Z,95255.00
2023-05-18T07:07:38.586Z,95255.00
2023-05-18T07:08:38.556Z,95253.00
2023-05-18T07:09:38.586Z,95253.00
2023-05-18T07:10:38.664Z,95251.00
2023-05-18T07:11:38.694Z,95251.00
2023-05-18T07:12:38.717Z,95255.00
2023-05-18T07:13:38.791Z,95253.00
2023-05-18T07:14:38.816Z,95253.00
2023-05-18T07:15:38.829Z,95253.00
2023-05-18T07:16:38.894Z,95253.00
2023-05-18T07:17:38.936Z,95251.00
2023-05-18T07:18:38.970Z,95249.00
2023-05-18T07:19:38.976Z,95249.00
2023-05-18T07:20:39.036Z,95249.00
2023-05-18T07:21:39.070Z,95249.00
2023-05-18T07:22:39.079Z,95245.00
2023-05-18T07:23:39.092Z,95245.00
2023-05-18T07:24:39.170Z,95247.00
2023-05-18T07:25:39.180Z,95245.00
2023-05-18T07:26:39.228Z,95243.00
2023-05-18T07:27:39.255Z,95245.00
2023-05-18T07:28:39.278Z,95241.00
2023-05-18T07:29:39.318Z,95243.00
2023-05-18T07:30:39.355Z,95243.00
2023-05-18T07:31:39.459Z,95243.00
2023-05-18T07:32:39.758Z,95239.00
2023-05-18T07:33:41.223Z,95241.00
2023-05-18T07:34:39.528Z,95241.00
2023-05-18T07:35:39.469Z,95243.00
2023-05-18T07:36:39.469Z,95241.00
2023-05-18T07:37:39.474Z,95243.00
2023-05-18T07:38:39.480Z,95243.00
2023-05-18T07:39:39.509Z,95241.00
2023-05-18T07:40:39.590Z,95241.00
2023-05-18T07:41:39.531Z,95241.00
2023-05-18T07:42:39.577Z,95239.00
2023-05-18T07:43:39.639Z,95243.00
2023-05-18T07:44:39.643Z,95241.00
2023-05-18T07:45:39.697Z,95241.00
2023-05-18T07:46:39.749Z,95237.00
2023-05-18T07:47:39.772Z,95239.00
2023-05-18T07:48:41.057Z,95239.00
2023-05-18T07:49:39.785Z,95239.00
2023-05-18T07:50:39.866Z,95237.00
2023-05-18T07:51:39.873Z,95237.00
2023-05-18T07:52:39.892Z,95239.00
2023-05-18T07:53:39.898Z,95239.00
2023-05-18T07:54:39.948Z,95239.00
2023-05-18T07:55:39.989Z,95239.00
2023-05-18T07:56:40.017Z,95237.00
2023-05-18T07:57:40.034Z,95241.00
2023-05-18T07:58:40.025Z,95239.00
2023-05-18T07:59:40.109Z,95239.00
2023-05-18T08:00:40.109Z,95239.00
2023-05-18T08:01:40.161Z,95237.00
2023-05-18T08:02:40.410Z,95235.00
2023-05-18T08:03:40.224Z,95235.00
2023-05-18T08:04:40.182Z,95233.00
2023-05-18T08:05:40.194Z,95235.00
2023-05-18T08:06:40.209Z,95237.00
2023-05-18T08:07:40.241Z,95237.00
2023-05-18T08:08:40.263Z,95235.00
2023-05-18T08:09:40.285Z,95237.00
2023-05-18T08:10:40.282Z,95237.00
2023-05-18T08:11:40.325Z,95239.00
2023-05-18T08:12:40.325Z,95239.00
2023-05-18T08:13:40.325Z,95239.00
2023-05-18T08:14:40.412Z,95241.00
2023-05-18T08:15:40.363Z,95237.00
2023-05-18T08:16:40.441Z,95239.00
2023-05-18T08:17:40.515Z,95237.00
2023-05-18T08:18:40.538Z,95237.00
2023-05-18T08:19:41.968Z,95235.00
2023-05-18T08:20:40.478Z,95235.00
2023-05-18T08:21:40.526Z,95239.00
2023-05-18T08:22:40.541Z,95237.00
2023-05-18T08:23:40.542Z,95237.00
2023-05-18T08:24:40.538Z,95239.00
2023-05-18T08:25:40.589Z,95239.00
2023-05-18T08:26:40.584Z,95239.00
2023-05-18T08:27:40.685Z,95241.00
2023-05-18T08:28:40.631Z,95243.00
2023-05-18T08:29:40.614Z,95243.00
2023-05-18T08:30:40.622Z,95245.00
2023-05-18T08:31:40.736Z,95245.00
2023-05-18T08:32:40.700Z,95247.00
2023-05-18T08:33:40.641Z,95247.00
2023-05-18T08:34:40.651Z,95245.00
2023-05-18T08:35:40.652Z,95247.00
2023-05-18T08:36:40.654Z,95245.00
2023-05-18T08:37:40.660Z,95249.00
2023-05-18T08:38:40.671Z,95247.00
2023-05-18T08:39:40.705Z,95245.00
2023-05-18T08:40:40.683Z,95243.00
2023-05-18T08:41:40.686Z,95243.00
2023-05-18T08:42:49.320Z,95247.00
2023-05-18T08:43:41.718Z,95245.00
2023-05-18T08:44:40.708Z,95245.00
2023-05-18T08:45:40.712Z,95245.00
2023-05-18T08:46:40.672Z,95245.00
2023-05-18T08:47:40.914Z,95241.00
2023-05-18T08:48:40.808Z,95243.00
2023-05-18T08:49:40.715Z,95245.00
2023-05-18T08:50:40.717Z,95243.00
2023-05-18T08:51:40.658Z,95243.00
2023-05-18T08:52:40.686Z,95243.00
2023-05-18T08:53:40.673Z,95241.00
2023-05-18T08:54:40.681Z,95241.00
2023-05-18T08:55:40.689Z,95241.00
2023-05-18T08:56:40.621Z,95239.00
2023-05-18T08:57:40.629Z,95239.00
2023-05-18T08:58:40.631Z,95237.00
2023-05-18T08:59:40.610Z,95233.00
2023-05-18T09:00:40.641Z,95231.00
2023-05-18T09:01:40.649Z,95235.00
2023-05-18T09:02:40.636Z,95235.00
2023-05-18T09:03:40.578Z,95235.00
2023-05-18T09:04:40.600Z,95231.00
2023-05-18T09:05:40.571Z,95231.00
2023-05-18T09:06:40.545Z,95233.00
2023-05-18T09:07:40.559Z,95233.00
2023-05-18T09:08:40.515Z,95230.00
2023-05-18T09:09:40.603Z,95231.00
2023-05-18T09:10:40.527Z,95235.00
2023-05-18T09:11:40.507Z,95235.00
2023-05-18T09:12:40.541Z,95235.00
2023-05-18T09:13:40.502Z,95233.00
2023-05-18T09:14:40.547Z,95235.00
2023-05-18T09:15:40.567Z,95237.00
2023-05-18T09:16:40.520Z,95237.00
2023-05-18T09:17:40.509Z,95237.00
2023-05-18T09:18:40.513Z,95235.00
2023-05-18T09:19:40.480Z,95235.00
2023-05-18T09:20:40.436Z,95239.00
2023-05-18T09:21:41.387Z,95235.00
2023-05-18T09:22:40.449Z,95237.00
2023-05-18T09:23:40.432Z,95235.00
2023-05-18T09:24:40.446Z,95237.00
2023-05-18T09:25:40.424Z,95235.00
2023-05-18T09:26:40.420Z,95235.00
2023-05-18T09:27:40.396Z,95235.00
2023-05-18T09:28:40.401Z,95233.00
2023-05-18T09:29:40.405Z,95237.00
2023-05-18T09:30:40.412Z,95233.00
2023-05-18T09:31:40.412Z,95233.00
2023-05-18T09:32:40.399Z,95233.00
2023-05-18T09:33:40.457Z,95231.00
2023-05-18T09:34:40.883Z,95230.00
2023-05-18T09:35:40.346Z,95233.00
2023-05-18T09:36:40.377Z,95233.00
2023-05-18T09:37:40.376Z,95230.00
2023-05-18T09:38:40.393Z,95226.00
2023-05-18T09:39:40.363Z,95230.00
2023-05-18T09:40:40.399Z,95228.00
2023-05-18T09:41:40.328Z,95228.00
2023-05-18T09:42:40.397Z,95228.00
2023-05-18T09:43:40.393Z,95228.00
2023-05-18T09:44:40.407Z,95224.00
2023-05-18T09:45:40.417Z,95228.00
2023-05-18T09:46:40.590Z,95226.00
2023-05-18T09:47:40.462Z,95226.00
2023-05-18T09:48:40.398Z,95224.00
2023-05-18T09:49:40.415Z,95224.00
2023-05-18T09:50:40.404Z,95222.00
2023-05-18T09:51:40.374Z,95222.00
2023-05-18T09:52:40.427Z,95222.00
2023-05-18T09:53:40.441Z,95222.00
2023-05-18T09:54:40.433Z,95218.00
2023-05-18T09:55:40.485Z,95216.00
2023-05-18T09:56:40.490Z,95220.00
2023-05-18T09:57:40.517Z,95220.00
2023-05-18T09:58:40.537Z,95220.00
2023-05-18T09:59:40.550Z,95220.00
2023-05-18T10:00:40.621Z,95214.00
2023-05-18T10:01:40.625Z,95216.00
2023-05-18T10:02:41.552Z,95222.00
2023-05-18T10:03:40.699Z,95220.00
2023-05-18T10:04:40.747Z,95220.00
2023-05-18T10:05:41.385Z,95218.00
2023-05-18T10:06:40.767Z,95222.00
2023-05-18T10:07:40.804Z,95218.00
2023-05-18T10:08:40.842Z,95216.00
2023-05-18T10:09:40.911Z,95216.00
2023-05-18T10:10:40.886Z,95216.00
2023-05-18T10:11:40.924Z,95216.00
2023-05-18T10:12:40.965Z,95218.00
2023-05-18T10:13:41.059Z,95218.00
2023-05-18T10:14:41.026Z,95214.00
2023-05-18T10:15:41.096Z,95214.00
2023-05-18T10:16:41.213Z,95214.00
2023-05-18T10:17:41.260Z,95214.00
2023-05-18T10:18:41.200Z,95216.00
2023-05-18T10:19:41.183Z,95212.00
2023-05-18T10:20:41.248Z,95212.00
2023-05-18T10:21:41.227Z,95210.00
2023-05-18T10:22:41.248Z,95210.00
2023-05-18T10:23:41.259Z,95210.00
2023-05-18T10:24:41.329Z,95212.00
2023-05-18T10:25:41.296Z,95208.00
2023-05-18T10:26:41.312Z,95206.00
2023-05-18T10:27:41.444Z,95208.00
2023-05-18T10:28:41.356Z,95204.00
2023-05-18T10:29:41.479Z,95204.00
2023-05-18T10:30:41.500Z,95206.00
2023-05-18T10:31:41.446Z,95208.00
2023-05-18T10:32:41.541Z,95206.00
2023-05-18T10:33:41.585Z,95204.00
2023-05-18T10:34:41.543Z,95204.00
2023-05-18T10:35:41.550Z,95204.00
2023-05-18T10:36:41.613Z,95204.00
2023-05-18T10:37:41.606Z,95204.00
2023-05-18T10:38:41.644Z,95204.00
2023-05-18T10:39:41.655Z,95202.00
2023-05-18T10:40:41.673Z,95202.00
2023-05-18T10:41:41.714Z,95200.00
2023-05-18T10:42:41.749Z,95200.00
2023-05-18T10:43:41.738Z,95200.00
2023-05-18T10:44:41.762Z,95202.00
2023-05-18T10:45:41.806Z,95204.00
2023-05-18T10:46:41.895Z,95202.00
2023-05-18T10:47:41.974Z,95200.00
2023-05-18T10:48:41.890Z,95200.00
2023-05-18T10:49:41.912Z,95206.00
2023-05-18T10:50:41.941Z,95206.00
2023-05-18T10:51:41.991Z,95204.00
2023-05-18T10:52:42.024Z,95202.00
2023-05-18T10:53:42.044Z,95200.00
2023-05-18T10:54:42.095Z,95202.00
2023-05-18T10:55:42.144Z,95206.00
2023-05-18T10:56:42.154Z,95204.00
2023-05-18T10:57:42.192Z,95202.00
2023-05-18T10:58:42.209Z,95202.00
2023-05-18T10:59:43.028Z,95200.00
2023-05-18T11:00:42.339Z,95204.00
2023-05-18T11:01:42.341Z,95202.00
2023-05-18T11:02:42.591Z,95204.00
2023-05-18T11:03:42.509Z,95206.00
2023-05-18T11:04:42.573Z,95206.00
2023-05-18T11:05:42.530Z,95206.00
2023-05-18T11:06:42.623Z,95206.00
2023-05-18T11:07:42.566Z,95202.00
2023-05-18T11:08:42.676Z,95202.00
2023-05-18T11:09:42.739Z,95200.00
2023-05-18T11:10:42.784Z,95196.00
2023-05-18T11:11:42.806Z,95196.00
2023-05-18T11:12:42.813Z,95198.00
2023-05-18T11:13:42.916Z,95196.00
2023-05-18T11:14:43.034Z,95194.00
2023-05-18T11:15:43.035Z,95196.00
2023-05-18T11:16:43.019Z,95196.00
2023-05-18T11:17:43.097Z,95198.00
2023-05-18T11:18:43.143Z,95196.00
2023-05-18T11:19:43.141Z,95200.00
2023-05-18T11:20:43.158Z,95198.00
2023-05-18T11:21:43.192Z,95194.00
2023-05-18T11:22:43.261Z,95194.00
2023-05-18T11:23:43.263Z,95196.00
2023-05-18T11:24:43.430Z,95194.00
2023-05-18T11:25:43.372Z,95194.00
2023-05-18T11:26:43.408Z,95192.00
2023-05-18T11:27:43.481Z,95192.00
2023-05-18T11:28:43.613Z,95196.00
2023-05-18T11:29:43.596Z,95194.00
2023-05-18T11:30:43.663Z,95194.00
2023-05-18T11:31:43.764Z,95196.00
2023-05-18T11:32:43.868Z,95196.00
2023-05-18T11:33:43.850Z,95196.00
2023-05-18T11:34:43.854Z,95196.00
2023-05-18T11:35:43.942Z,95192.00
2023-05-18T11:36:44.001Z,95200.00
2023-05-18T11:37:44.065Z,95200.00
2023-05-18T11:38:44.093Z,95200.00
2023-05-18T11:39:55.274Z,95200.00
2023-05-18T11:40:45.221Z,95198.00
2023-05-18T11:41:44.222Z,95194.00
2023-05-18T11:42:44.211Z,95196.00
2023-05-18T11:43:44.214Z,95196.00
2023-05-18T11:44:44.153Z,95194.00